首页
METAR-TAF:

METAR-TAF

机场 :

凯法利尼亚岛, 希腊

纬度: 38-07N, 经度: 020-30E, 海拔: 19米

当前天气观测

该预报发布于2小时和15分钟前的14:50 UTC
风速16节,风向北转西北
温度 21°C
湿度 53%
气压 1012 hPa
能见度10公里或以上
少量云层高于1600英尺

METAR: LGKF 011450Z 33016KT 9999 FEW016 21/11 Q1012

时间: 20:05 (17:05 UTC)

预报

该预报发布于3小时和5分钟前的14:00 UTC
预报有效从01日的 15点(UTC)到 01日的 24点(UTC)
风速15节,风向北转西北
能见度10公里或以上
少量云层高于1600英尺
散云层高于7000英尺
短暂存在
从 01日的 15点(UTC)到 01日的 17点(UTC)
风速15节,风向北转西北,有时为25节阵风

TAF: LGKF 011400Z 0115/0124 33015KT 9999 FEW016 SCT070 TEMPO 0115/0117 33015G25KT

超过4000个机场的气象观测和天气预报(METAR&TAF报告)。

可查询的气象台以黄色和红色小点在地图上表示。

将鼠标移到小点上方,可查看气象台名称。

然后点击查看天气观测和预报。

如需切换地图:点击带黑十字的绿色按钮放大地图;点击带横线的绿色按钮缩小地图;或者点击绿色箭头查看邻近地区的地图。


METAR-TAF: